Time;durP1;ratioP1;P1;durP2;ratioP2;P2;SDS_P1;SDS_P2;PMS_P1;PMS_P2;Temp;Humidity;BMP_temperature;BMP_pressure;BME280_temperature;BME280_humidity;BME280_pressure;Samples;Min_cycle;Max_cycle;Signal;HPM_P1;HPM_P2
2021/10/08 00:02:35;;;;;;;11.13;8.10;;;13.20;99.90;;;;;;6257743;22;20449;-85
2021/10/08 00:13:05;;;;;;;10.83;7.90;;;13.30;99.90;;;;;;6120080;23;20365;-86
2021/10/08 00:19:19;;;;;;;9.80;8.63;;;13.00;99.90;;;;;;6168651;22;20433;-85
2021/10/08 00:21:48;;;;;;;10.43;7.17;;;12.90;99.90;;;;;;6224456;22;20447;-85
2021/10/08 00:24:15;;;;;;;10.73;8.20;;;12.90;99.90;;;;;;6217377;22;20408;-84
2021/10/08 00:26:43;;;;;;;11.17;9.00;;;13.10;99.90;;;;;;6220415;22;20474;-87
2021/10/08 00:29:11;;;;;;;10.20;7.50;;;13.10;99.90;;;;;;6265673;22;20423;-89
2021/10/08 00:31:55;;;;;;;9.30;7.57;;;13.20;99.90;;;;;;6213963;22;21126;-86
2021/10/08 00:34:31;;;;;;;8.90;7.50;;;13.10;99.90;;;;;;6243469;22;20416;-86
2021/10/08 00:37:15;;;;;;;9.47;8.47;;;13.10;99.90;;;;;;6258786;22;20412;-86
2021/10/08 00:43:48;;;;;;;8.30;7.00;;;12.80;99.90;;;;;;6117350;23;21187;-84
2021/10/08 00:46:22;;;;;;;9.27;7.90;;;12.60;99.90;;;;;;6123450;23;20648;-86
2021/10/08 00:48:58;;;;;;;9.30;7.40;;;12.60;99.90;;;;;;6208682;23;20977;-86
2021/10/08 00:51:45;;;;;;;9.40;7.17;;;12.60;99.90;;;;;;6210525;22;20427;-87
2021/10/08 00:54:20;;;;;;;8.07;6.53;;;12.60;99.90;;;;;;6187635;23;21062;-85
2021/10/08 00:56:58;;;;;;;10.23;7.40;;;12.60;99.90;;;;;;6212761;23;20428;-85
2021/10/08 01:03:16;;;;;;;9.87;7.47;;;12.70;99.90;;;;;;6211730;23;20386;-86
2021/10/08 01:05:55;;;;;;;8.93;8.00;;;12.70;99.90;;;;;;6184843;23;20480;-85
2021/10/08 01:08:31;;;;;;;8.03;6.67;;;12.70;99.90;;;;;;6212962;23;20408;-87
2021/10/08 01:11:18;;;;;;;;;;;;;;;;;;;;;
2021/10/08 01:14:37;;;;;;;10.33;9.17;;;12.70;99.90;;;;;;6114482;23;20448;-85
2021/10/08 01:17:14;;;;;;;10.60;9.47;;;12.80;99.90;;;;;;6185547;23;20412;-87
2021/10/08 01:19:49;;;;;;;9.10;7.23;;;12.70;99.90;;;;;;6206614;23;20411;-85
2021/10/08 01:22:19;;;;;;;7.53;6.60;;;12.70;99.90;;;;;;6211545;22;20538;-86
2021/10/08 01:25:03;;;;;;;8.80;6.90;;;12.80;99.90;;;;;;6212432;23;20408;-85
2021/10/08 01:28:12;;;;;;;8.27;7.33;;;12.70;99.90;;;;;;6185893;23;20870;-86
2021/10/08 01:30:39;;;;;;;7.73;7.00;;;12.70;99.90;;;;;;6215629;22;20696;-86
2021/10/08 01:33:19;;;;;;;10.73;7.77;;;12.70;99.90;;;;;;6241490;22;20395;-86
2021/10/08 01:35:46;;;;;;;8.77;7.77;;;12.80;99.90;;;;;;6217950;22;21230;-87
2021/10/08 01:38:20;;;;;;;11.20;7.80;;;12.80;99.90;;;;;;6245327;22;20468;-86
2021/10/08 01:40:53;;;;;;;11.00;8.70;;;12.70;99.90;;;;;;6215173;22;20446;-84
2021/10/08 01:43:31;;;;;;;8.53;7.20;;;12.60;99.90;;;;;;6245271;22;20437;-86
2021/10/08 01:45:58;;;;;;;8.93;7.67;;;12.50;99.90;;;;;;6247262;22;20958;-85
2021/10/08 01:48:31;;;;;;;7.93;7.07;;;12.50;99.90;;;;;;6245983;22;20796;-85
2021/10/08 01:51:04;;;;;;;8.50;7.03;;;12.40;99.90;;;;;;6219253;22;21270;-84
2021/10/08 01:53:31;;;;;;;7.77;6.50;;;12.30;99.90;;;;;;6225821;22;20466;-86
2021/10/08 01:56:34;;;;;;;8.93;7.33;;;12.30;99.90;;;;;;6209085;22;20521;-88
2021/10/08 01:59:38;;;;;;;9.87;7.60;;;12.20;99.90;;;;;;6233493;22;20414;-86
2021/10/08 02:02:19;;;;;;;8.30;7.23;;;12.20;99.90;;;;;;6119935;23;20997;-84
2021/10/08 02:05:47;;;;;;;9.63;7.27;;;12.30;99.90;;;;;;6072721;23;20439;-86
2021/10/08 02:08:14;;;;;;;7.73;6.80;;;12.30;99.90;;;;;;6092592;23;20412;-85
2021/10/08 02:10:41;;;;;;;8.60;7.70;;;12.40;99.90;;;;;;6129213;22;20484;-85
2021/10/08 02:13:14;;;;;;;9.00;7.63;;;12.20;99.90;;;;;;6250323;22;20398;-87
2021/10/08 02:16:08;;;;;;;7.73;6.93;;;12.30;99.90;;;;;;6271532;22;20901;-85
2021/10/08 02:18:52;;;;;;;8.40;7.33;;;12.20;99.90;;;;;;6253480;22;20402;-85
2021/10/08 02:21:38;;;;;;;9.13;8.10;;;12.20;99.90;;;;;;6259402;22;20467;-86
2021/10/08 02:24:10;;;;;;;8.83;7.20;;;12.20;99.90;;;;;;6216446;22;20403;-86
2021/10/08 02:26:42;;;;;;;10.00;8.00;;;12.30;99.90;;;;;;6222457;22;20460;-84
2021/10/08 02:29:20;;;;;;;7.57;6.77;;;12.30;99.90;;;;;;6214238;22;20411;-85
2021/10/08 02:31:51;;;;;;;8.30;6.60;;;12.20;99.90;;;;;;6199307;22;20458;-86
2021/10/08 02:34:29;;;;;;;10.60;7.60;;;12.10;99.90;;;;;;6211260;23;20384;-85
2021/10/08 02:37:16;;;;;;;8.73;7.83;;;12.40;99.90;;;;;;6214902;22;20778;-86
2021/10/08 02:39:43;;;;;;;8.80;6.73;;;12.30;99.90;;;;;;6212499;22;20518;-84
2021/10/08 02:42:10;;;;;;;9.97;7.30;;;12.20;99.90;;;;;;6210175;22;20447;-86
2021/10/08 02:44:37;;;;;;;8.73;6.97;;;12.20;99.90;;;;;;6210597;23;20889;-86
2021/10/08 02:47:18;;;;;;;9.83;7.07;;;12.10;99.90;;;;;;6184397;23;20906;-85
2021/10/08 02:49:48;;;;;;;7.53;6.50;;;12.20;99.90;;;;;;6208426;23;20682;-86
2021/10/08 02:52:18;;;;;;;7.87;7.07;;;12.30;99.90;;;;;;6210704;22;20515;-86
2021/10/08 02:55:05;;;;;;;7.53;6.73;;;12.20;99.90;;;;;;6207600;23;20491;-84
2021/10/08 02:57:32;;;;;;;11.43;8.70;;;12.10;99.90;;;;;;6212500;23;20991;-87
2021/10/08 03:00:03;;;;;;;10.37;6.87;;;12.00;99.90;;;;;;6213620;22;20418;-87
2021/10/08 03:02:52;;;;;;;9.87;7.27;;;12.00;99.90;;;;;;6211415;22;20856;-85
2021/10/08 03:05:21;;;;;;;10.80;6.40;;;12.00;99.90;;;;;;6196838;22;20720;-87
2021/10/08 03:07:50;;;;;;;8.00;6.50;;;12.00;99.90;;;;;;6208996;23;20416;-85
2021/10/08 03:10:18;;;;;;;9.63;7.70;;;12.20;99.90;;;;;;6210563;22;21401;-86
2021/10/08 03:12:46;;;;;;;9.10;8.00;;;12.40;99.90;;;;;;6209816;22;20440;-87
2021/10/08 03:15:14;;;;;;;11.43;7.40;;;12.20;99.90;;;;;;6204880;22;20479;-87
2021/10/08 03:17:43;;;;;;;8.40;6.53;;;12.10;99.90;;;;;;6210894;22;20491;-87
2021/10/08 03:20:11;;;;;;;8.70;7.17;;;12.30;99.90;;;;;;6208383;22;20412;-85
2021/10/08 03:26:40;;;;;;;8.63;7.50;;;12.20;99.90;;;;;;6201524;22;20407;-87
2021/10/08 03:29:07;;;;;;;6.87;6.17;;;12.20;99.90;;;;;;6209459;22;20419;-86
2021/10/08 03:31:44;;;;;;;9.23;6.97;;;12.30;99.90;;;;;;6210737;22;20443;-86
2021/10/08 03:34:11;;;;;;;10.67;8.53;;;12.10;99.90;;;;;;6239664;22;20422;-86
2021/10/08 03:40:30;;;;;;;8.00;6.43;;;11.90;99.90;;;;;;6099786;23;20387;-84
2021/10/08 03:43:01;;;;;;;8.33;6.73;;;11.70;99.90;;;;;;6089589;23;20442;-87
2021/10/08 03:45:43;;;;;;;8.10;7.30;;;11.80;99.90;;;;;;6093049;23;20411;-84
2021/10/08 03:51:01;;;;;;;7.90;6.13;;;11.70;99.90;;;;;;6164902;22;20458;-86
2021/10/08 03:53:28;;;;;;;8.00;7.20;;;11.60;99.90;;;;;;6267134;22;20407;-85
2021/10/08 03:55:55;;;;;;;7.17;6.43;;;11.60;99.90;;;;;;6243319;22;20442;-86
2021/10/08 04:02:17;;;;;;;8.10;7.20;;;11.60;99.90;;;;;;6254089;22;20437;-86
2021/10/08 04:04:44;;;;;;;9.70;7.03;;;11.50;99.90;;;;;;6270140;22;20410;-86
2021/10/08 04:07:13;;;;;;;14.90;7.67;;;11.60;99.90;;;;;;6266648;22;20493;-85
2021/10/08 04:09:43;;;;;;;7.00;6.30;;;11.60;99.90;;;;;;6269752;22;20501;-85
2021/10/08 04:12:24;;;;;;;7.33;6.63;;;11.70;99.90;;;;;;6244947;22;20420;-85
2021/10/08 04:15:09;;;;;;;;;;;;;;;;;;;;;
2021/10/08 04:27:32;;;;;;;13.73;8.70;;;11.60;99.90;;;;;;6269729;22;20442;-86
2021/10/08 04:33:16;;;;;;;10.60;8.00;;;11.60;99.90;;;;;;6251796;22;20454;-86
2021/10/08 04:39:36;;;;;;;15.03;7.83;;;11.50;99.90;;;;;;6272758;22;20768;-88
2021/10/08 04:46:11;;;;;;;10.60;7.90;;;11.60;99.90;;;;;;6065411;22;20387;-87
2021/10/08 04:48:44;;;;;;;20.80;9.87;;;11.60;99.90;;;;;;6214507;22;20411;-86
2021/10/08 04:57:39;;;;;;;;;;;;;;;;;;;;;
2021/10/08 05:03:23;;;;;;;16.50;9.30;;;11.60;99.90;;;;;;6267610;22;20447;-85
2021/10/08 05:13:27;;;;;;;13.63;9.40;;;11.30;99.90;;;;;;6239054;22;20415;-87
2021/10/08 05:16:04;;;;;;;16.10;8.93;;;11.30;99.90;;;;;;6212761;22;20412;-86
2021/10/08 05:18:39;;;;;;;16.50;9.10;;;11.40;99.90;;;;;;6242078;22;20411;-87
2021/10/08 05:21:24;;;;;;;13.77;8.47;;;11.20;99.90;;;;;;6247230;22;20493;-85
2021/10/08 05:23:51;;;;;;;11.73;7.50;;;11.20;99.90;;;;;;6271297;22;20407;-87
2021/10/08 05:26:19;;;;;;;14.27;8.70;;;11.20;99.90;;;;;;6242353;22;20406;-85
2021/10/08 05:28:45;;;;;;;8.13;7.17;;;11.40;99.90;;;;;;6274783;22;20390;-85
2021/10/08 05:31:15;;;;;;;10.47;7.77;;;11.40;99.90;;;;;;6227017;22;20462;-87
2021/10/08 05:37:05;;;;;;;10.00;7.83;;;11.20;99.90;;;;;;6241924;22;20421;-86
2021/10/08 05:39:45;;;;;;;;;;;;;;;;;;;;;
2021/10/08 05:42:27;;;;;;;9.07;7.67;;;11.30;99.90;;;;;;6230044;22;20469;-87
2021/10/08 05:48:40;;;;;;;10.20;7.37;;;11.20;99.90;;;;;;6242147;22;20843;-86
2021/10/08 05:52:09;;;;;;;;;;;;;;;;;;;;;
2021/10/08 05:58:49;;;;;;;9.10;6.13;;;11.10;99.90;;;;;;6243100;22;20385;-88
2021/10/08 06:18:27;;;;;;;9.50;7.33;;;11.20;99.90;;;;;;6178190;23;20568;-87
2021/10/08 06:21:05;;;;;;;8.80;6.20;;;11.20;99.90;;;;;;6170009;23;20516;-87
2021/10/08 06:55:34;;;;;;;7.90;5.60;;;10.70;99.90;;;;;;6245843;22;20427;-85
2021/10/08 07:01:57;;;;;;;6.77;6.07;;;10.80;99.90;;;;;;6153197;23;20453;-86
2021/10/08 07:04:25;;;;;;;7.60;6.00;;;11.00;99.90;;;;;;6157073;23;20398;-87
2021/10/08 07:06:52;;;;;;;6.80;5.60;;;11.90;99.90;;;;;;6256709;22;20509;-86
2021/10/08 07:09:39;;;;;;;6.63;5.20;;;14.20;99.90;;;;;;6224477;22;20406;-86
2021/10/08 07:12:27;;;;;;;;;;;;;;;;;;;;;
2021/10/08 07:20:09;;;;;;;;;;;;;;;;;;;;;
2021/10/08 07:30:44;;;;;;;5.57;5.17;;;23.10;69.40;;;;;;6063723;22;20467;-86
2021/10/08 07:37:01;;;;;;;6.07;5.47;;;22.90;65.50;;;;;;6208647;22;20420;-86
2021/10/08 07:39:28;;;;;;;6.30;5.70;;;19.00;73.80;;;;;;6288258;22;20466;-85
2021/10/08 07:41:54;;;;;;;8.80;6.40;;;16.90;83.90;;;;;;6253732;22;20447;-85
2021/10/08 07:44:21;;;;;;;6.67;5.63;;;16.90;90.00;;;;;;6236330;22;20412;-84
2021/10/08 07:46:51;;;;;;;7.37;6.43;;;17.00;89.70;;;;;;6239656;22;20465;-84
2021/10/08 07:49:18;;;;;;;6.90;6.23;;;16.60;90.40;;;;;;6265245;22;20418;-84
2021/10/08 07:51:44;;;;;;;6.20;5.60;;;15.90;91.60;;;;;;6228159;22;21416;-85
2021/10/08 07:54:20;;;;;;;10.10;5.47;;;15.00;93.00;;;;;;6243773;22;20499;-86
2021/10/08 07:56:48;;;;;;;8.33;7.37;;;14.40;95.10;;;;;;6238158;22;20426;-85
2021/10/08 07:59:30;;;;;;;8.17;6.73;;;14.00;96.40;;;;;;6260131;22;20470;-87
2021/10/08 08:01:57;;;;;;;7.33;6.07;;;13.70;97.90;;;;;;6248229;22;20534;-85
2021/10/08 08:04:24;;;;;;;8.73;7.87;;;13.60;98.80;;;;;;6249144;22;20415;-85
2021/10/08 08:06:51;;;;;;;8.00;6.33;;;13.50;99.30;;;;;;6207145;22;20415;-85
2021/10/08 08:09:17;;;;;;;8.47;6.30;;;13.40;99.90;;;;;;6228559;22;20406;-85
2021/10/08 08:11:44;;;;;;;6.30;5.67;;;13.30;99.90;;;;;;6207844;22;20427;-86
2021/10/08 08:14:11;;;;;;;6.27;5.67;;;13.10;99.90;;;;;;6225633;22;21254;-85
2021/10/08 08:16:38;;;;;;;7.80;5.90;;;12.90;99.90;;;;;;6237802;22;20415;-87
2021/10/08 08:19:05;;;;;;;8.00;7.20;;;13.10;99.90;;;;;;6237080;22;20982;-87
2021/10/08 08:21:32;;;;;;;6.40;5.80;;;13.10;99.90;;;;;;6206675;22;20792;-84
2021/10/08 08:23:59;;;;;;;6.13;5.53;;;13.10;99.90;;;;;;6193218;22;20439;-86
2021/10/08 08:26:27;;;;;;;8.00;6.70;;;13.10;99.90;;;;;;6214513;22;20940;-86
2021/10/08 08:28:55;;;;;;;6.50;5.83;;;13.20;99.90;;;;;;6228565;22;20415;-84
2021/10/08 08:31:23;;;;;;;6.60;5.70;;;13.20;99.90;;;;;;6207312;22;20442;-85
2021/10/08 08:34:06;;;;;;;7.50;5.60;;;13.00;99.90;;;;;;6222015;22;20415;-83
2021/10/08 08:36:33;;;;;;;7.73;6.50;;;12.80;99.90;;;;;;6206184;22;20406;-84
2021/10/08 08:39:07;;;;;;;8.70;6.27;;;12.90;99.90;;;;;;6213664;22;20415;-84
2021/10/08 08:41:39;;;;;;;10.17;6.40;;;13.20;99.90;;;;;;6185918;22;20435;-87
2021/10/08 08:44:05;;;;;;;8.93;7.23;;;13.30;99.90;;;;;;6226733;22;20427;-83
2021/10/08 08:46:36;;;;;;;8.27;6.70;;;13.50;99.90;;;;;;6227682;22;20686;-83
2021/10/08 08:49:12;;;;;;;6.90;6.20;;;13.40;99.90;;;;;;6203306;22;20392;-85
2021/10/08 08:51:39;;;;;;;8.10;7.27;;;13.60;99.90;;;;;;6246958;22;20468;-85
2021/10/08 08:54:22;;;;;;;7.50;6.47;;;13.60;99.90;;;;;;6238402;22;20438;-85
2021/10/08 08:56:49;;;;;;;10.90;6.83;;;13.40;99.90;;;;;;6228312;22;20403;-86
2021/10/08 08:59:15;;;;;;;9.67;7.40;;;13.20;99.90;;;;;;6263238;22;20833;-85
2021/10/08 09:02:00;;;;;;;7.90;6.57;;;13.50;99.90;;;;;;6214371;22;20529;-86
2021/10/08 09:04:29;;;;;;;13.77;7.00;;;13.70;99.90;;;;;;6250018;22;20411;-87
2021/10/08 09:06:56;;;;;;;9.03;6.50;;;13.80;99.90;;;;;;6209548;22;20387;-86
2021/10/08 09:09:25;;;;;;;7.60;6.90;;;14.00;99.90;;;;;;6211492;22;20407;-85
2021/10/08 09:11:55;;;;;;;8.83;6.80;;;13.70;99.90;;;;;;6194826;22;20423;-86
2021/10/08 09:14:29;;;;;;;6.93;6.33;;;14.00;99.90;;;;;;6198618;22;20411;-87
2021/10/08 09:17:14;;;;;;;6.63;6.03;;;14.10;99.90;;;;;;6207649;22;20403;-84
2021/10/08 09:20:02;;;;;;;11.60;7.00;;;14.20;99.90;;;;;;6240346;22;20435;-86
2021/10/08 09:22:41;;;;;;;7.90;6.70;;;14.20;99.90;;;;;;6249620;22;20443;-86
2021/10/08 09:25:29;;;;;;;9.40;7.20;;;14.20;99.90;;;;;;6249496;22;20742;-86
2021/10/08 09:28:10;;;;;;;13.23;8.93;;;14.30;99.90;;;;;;6243760;22;20419;-83
2021/10/08 09:30:40;;;;;;;8.50;7.60;;;14.50;99.90;;;;;;6202408;22;20426;-85
2021/10/08 09:33:09;;;;;;;9.53;7.20;;;14.70;99.90;;;;;;6228948;22;20444;-86
2021/10/08 09:35:37;;;;;;;9.17;7.00;;;14.90;99.90;;;;;;6193757;22;20411;-85
2021/10/08 09:38:11;;;;;;;7.17;6.30;;;16.20;98.50;;;;;;6220808;22;20421;-84
2021/10/08 09:40:45;;;;;;;10.17;6.70;;;17.90;95.30;;;;;;6244383;22;20435;-85
2021/10/08 09:43:23;;;;;;;7.53;6.83;;;19.60;91.50;;;;;;6249324;22;20434;-84
2021/10/08 09:45:55;;;;;;;8.13;5.97;;;20.70;87.20;;;;;;6179431;22;21489;-85
2021/10/08 09:48:44;;;;;;;6.77;6.07;;;21.60;81.10;;;;;;6230598;22;20391;-86
2021/10/08 09:51:12;;;;;;;5.60;5.13;;;21.30;79.70;;;;;;6160721;22;20438;-84
2021/10/08 09:53:50;;;;;;;6.43;5.67;;;22.00;76.80;;;;;;6242752;22;20482;-83
2021/10/08 09:56:39;;;;;;;6.00;5.40;;;22.40;74.10;;;;;;6256986;22;20409;-83
2021/10/08 09:59:16;;;;;;;6.77;6.17;;;22.30;74.20;;;;;;6250143;22;20399;-85
2021/10/08 10:01:45;;;;;;;6.93;6.20;;;21.90;73.50;;;;;;6198892;22;20523;-85
2021/10/08 10:04:12;;;;;;;6.83;6.23;;;20.50;76.80;;;;;;6215513;23;20440;-81
2021/10/08 10:06:39;;;;;;;10.20;8.00;;;19.70;81.70;;;;;;6208427;23;20434;-83
2021/10/08 10:09:08;;;;;;;6.93;6.33;;;19.80;83.30;;;;;;6212489;23;20412;-84
2021/10/08 10:11:35;;;;;;;6.17;5.67;;;19.70;83.20;;;;;;6211760;22;20497;-84
2021/10/08 10:14:02;;;;;;;7.60;6.77;;;19.30;84.50;;;;;;6194406;22;20474;-82
2021/10/08 10:16:33;;;;;;;6.87;6.17;;;19.10;86.10;;;;;;6208645;22;20499;-86
2021/10/08 10:19:01;;;;;;;7.43;6.70;;;18.80;86.70;;;;;;6194873;23;20460;-86
2021/10/08 10:21:31;;;;;;;7.30;6.57;;;18.40;88.00;;;;;;6199968;22;20452;-84
2021/10/08 10:24:00;;;;;;;8.10;6.90;;;18.20;90.10;;;;;;6210700;23;20701;-82
2021/10/08 10:26:29;;;;;;;11.30;7.50;;;18.20;90.30;;;;;;6212638;22;20490;-85
2021/10/08 10:28:59;;;;;;;9.30;7.17;;;18.20;90.50;;;;;;6192203;22;20415;-85
2021/10/08 10:31:27;;;;;;;8.10;6.93;;;18.20;90.40;;;;;;6206057;22;20430;-86
2021/10/08 10:34:01;;;;;;;10.10;7.07;;;18.20;90.50;;;;;;6228190;22;20419;-84
2021/10/08 10:36:31;;;;;;;9.13;7.53;;;18.20;90.90;;;;;;6195023;22;20804;-85
2021/10/08 10:39:13;;;;;;;9.27;7.27;;;18.00;90.80;;;;;;6200081;22;20426;-82
2021/10/08 10:41:41;;;;;;;7.90;7.10;;;17.80;91.10;;;;;;6213640;22;20431;-84
2021/10/08 10:44:15;;;;;;;7.70;6.90;;;17.80;91.80;;;;;;6205916;23;20446;-83
2021/10/08 10:51:59;;;;;;;8.90;7.07;;;18.00;91.30;;;;;;6192916;22;20499;-81
2021/10/08 10:54:38;;;;;;;7.00;6.40;;;18.00;91.10;;;;;;6221400;22;20419;-85
2021/10/08 10:57:32;;;;;;;8.67;7.03;;;17.90;91.10;;;;;;6231186;22;20379;-87
2021/10/08 11:00:24;;;;;;;8.27;7.47;;;17.80;91.50;;;;;;6246464;22;20412;-87
2021/10/08 11:03:12;;;;;;;8.03;7.30;;;17.90;92.20;;;;;;6213307;23;20466;-86
2021/10/08 11:06:04;;;;;;;9.37;6.23;;;18.00;91.90;;;;;;6206365;22;20916;-86
2021/10/08 11:08:31;;;;;;;6.83;6.13;;;17.70;91.80;;;;;;6219519;23;20408;-85
2021/10/08 11:11:01;;;;;;;6.23;5.70;;;17.60;92.00;;;;;;6202601;22;20432;-86
2021/10/08 11:13:29;;;;;;;8.03;5.67;;;18.10;90.60;;;;;;6222543;22;20416;-84
2021/10/08 11:16:10;;;;;;;6.00;5.50;;;18.10;90.10;;;;;;6215331;23;20516;-83
2021/10/08 11:18:45;;;;;;;5.80;5.13;;;17.90;90.20;;;;;;6216011;22;21295;-83
2021/10/08 11:21:27;;;;;;;5.80;5.30;;;17.60;90.80;;;;;;6227678;22;20431;-83
2021/10/08 11:24:12;;;;;;;6.97;6.30;;;17.50;91.20;;;;;;6184913;22;21290;-84
2021/10/08 11:26:39;;;;;;;7.67;6.40;;;17.80;91.70;;;;;;6220120;22;20408;-83
2021/10/08 11:29:06;;;;;;;5.57;5.00;;;17.70;91.60;;;;;;6203911;22;21298;-83
2021/10/08 11:31:33;;;;;;;8.10;5.30;;;17.70;91.80;;;;;;6227372;22;21009;-83
2021/10/08 11:34:00;;;;;;;7.20;6.50;;;17.50;91.90;;;;;;6210697;22;20482;-86
2021/10/08 11:36:32;;;;;;;8.03;6.57;;;17.70;92.00;;;;;;6208426;22;20404;-85
2021/10/08 11:39:13;;;;;;;7.20;6.50;;;17.80;91.70;;;;;;6246602;22;20404;-82
2021/10/08 11:41:42;;;;;;;7.90;6.67;;;17.50;91.90;;;;;;6245493;22;20429;-85
2021/10/08 11:47:08;;;;;;;9.43;6.20;;;17.40;92.60;;;;;;6249454;22;20392;-84
2021/10/08 11:52:03;;;;;;;7.63;5.97;;;17.70;92.70;;;;;;6249429;22;20439;-80
2021/10/08 11:54:29;;;;;;;8.93;6.10;;;17.60;92.90;;;;;;6246867;23;20799;-81
2021/10/08 11:57:08;;;;;;;6.90;6.17;;;17.60;93.10;;;;;;6245796;23;20406;-81
2021/10/08 11:59:37;;;;;;;7.40;5.90;;;17.60;92.90;;;;;;6248095;22;20407;-84
2021/10/08 12:02:09;;;;;;;6.33;5.73;;;17.70;93.10;;;;;;6268735;22;20439;-83
2021/10/08 12:04:35;;;;;;;6.03;5.50;;;17.90;93.10;;;;;;6276715;22;20450;-82
2021/10/08 12:07:07;;;;;;;6.43;5.50;;;18.30;92.40;;;;;;6277526;22;20925;-83
2021/10/08 12:09:34;;;;;;;5.50;5.00;;;18.70;91.80;;;;;;6278149;22;20407;-83
2021/10/08 12:12:12;;;;;;;6.70;4.70;;;18.90;91.40;;;;;;6277826;22;20427;-84
2021/10/08 12:14:46;;;;;;;5.73;5.17;;;18.60;91.40;;;;;;6278506;22;20407;-83
2021/10/08 12:17:14;;;;;;;6.27;4.70;;;18.70;91.50;;;;;;6253117;22;20411;-84
2021/10/08 12:19:42;;;;;;;4.60;4.20;;;19.20;91.00;;;;;;6254058;22;20415;-85
2021/10/08 12:22:23;;;;;;;4.90;4.00;;;19.60;90.30;;;;;;6262955;22;20437;-84
2021/10/08 12:25:02;;;;;;;5.33;4.40;;;19.60;90.20;;;;;;6302760;22;20663;-88
2021/10/08 12:27:36;;;;;;;5.83;4.10;;;19.90;90.10;;;;;;6303234;22;20456;-88
2021/10/08 12:30:03;;;;;;;4.03;3.73;;;20.30;90.10;;;;;;6276807;22;20392;-88
2021/10/08 12:32:30;;;;;;;4.20;3.80;;;20.40;88.20;;;;;;6271534;22;20450;-83
2021/10/08 12:34:57;;;;;;;4.30;4.00;;;20.70;87.20;;;;;;6258185;22;20820;-84
2021/10/08 12:37:33;;;;;;;3.80;3.50;;;21.50;85.20;;;;;;6284721;22;20405;-86
2021/10/08 12:40:16;;;;;;;5.77;3.63;;;22.40;82.60;;;;;;6255113;22;20433;-83
2021/10/08 12:43:00;;;;;;;5.90;4.23;;;22.70;79.00;;;;;;6256087;22;20474;-85
2021/10/08 12:45:54;;;;;;;5.90;5.40;;;23.30;75.80;;;;;;6255721;22;20391;-85
2021/10/08 12:48:23;;;;;;;4.57;4.10;;;22.30;77.60;;;;;;6284262;22;21101;-85
2021/10/08 12:51:01;;;;;;;3.97;3.20;;;22.20;78.00;;;;;;6257003;22;20530;-85
2021/10/08 12:53:27;;;;;;;4.27;3.80;;;22.00;78.90;;;;;;6287057;22;20391;-84
2021/10/08 12:55:54;;;;;;;3.80;3.43;;;22.30;79.70;;;;;;6285751;22;20744;-85
2021/10/08 12:58:24;;;;;;;3.47;3.17;;;22.50;78.20;;;;;;6281146;22;20422;-85
2021/10/08 13:01:00;;;;;;;3.07;2.87;;;23.10;77.90;;;;;;6279985;22;20498;-86
2021/10/08 13:03:44;;;;;;;4.67;2.57;;;23.80;73.60;;;;;;6283961;22;20458;-84
2021/10/08 13:06:17;;;;;;;2.83;2.63;;;23.60;71.20;;;;;;6259343;22;20407;-85
2021/10/08 13:09:05;;;;;;;2.90;2.70;;;23.20;72.70;;;;;;6260665;22;20407;-86
2021/10/08 13:11:52;;;;;;;2.40;2.30;;;23.50;73.30;;;;;;6257711;22;20415;-87
2021/10/08 13:14:27;;;;;;;2.67;2.47;;;23.70;70.90;;;;;;6257010;22;20413;-86
2021/10/08 13:16:55;;;;;;;2.40;2.20;;;23.30;70.60;;;;;;6280790;22;20409;-87
2021/10/08 13:19:34;;;;;;;2.70;2.13;;;23.10;70.30;;;;;;6264479;22;20403;-85
2021/10/08 13:22:04;;;;;;;3.20;2.40;;;23.60;69.50;;;;;;6289911;22;20430;-85
2021/10/08 13:24:32;;;;;;;3.17;2.33;;;24.00;66.60;;;;;;6259784;22;20446;-87
2021/10/08 13:27:02;;;;;;;3.03;2.47;;;23.30;67.20;;;;;;6289647;22;20376;-85
2021/10/08 13:29:29;;;;;;;2.50;2.30;;;22.70;69.10;;;;;;6261582;22;20418;-84
2021/10/08 13:32:10;;;;;;;2.33;2.20;;;22.20;70.80;;;;;;6287713;22;20417;-85
2021/10/08 13:34:39;;;;;;;3.03;2.50;;;22.00;72.50;;;;;;6288691;22;20411;-85
2021/10/08 13:37:08;;;;;;;3.17;2.63;;;21.70;73.50;;;;;;6288131;22;20689;-86
2021/10/08 13:39:36;;;;;;;4.00;2.40;;;21.40;75.30;;;;;;6289956;22;20422;-86
2021/10/08 13:42:04;;;;;;;4.33;2.43;;;21.30;76.20;;;;;;6287752;22;20420;-84
2021/10/08 13:44:32;;;;;;;3.43;2.70;;;21.00;77.00;;;;;;6289732;22;20440;-83
2021/10/08 13:47:13;;;;;;;2.67;2.47;;;21.00;78.80;;;;;;6264352;22;20494;-86
2021/10/08 13:49:40;;;;;;;4.03;2.80;;;21.20;75.70;;;;;;6260120;22;20407;-86
2021/10/08 13:52:08;;;;;;;6.13;3.70;;;20.90;76.10;;;;;;6261791;22;20423;-81
2021/10/08 13:54:37;;;;;;;4.10;2.77;;;20.80;76.60;;;;;;6258104;22;20609;-84
2021/10/08 13:57:05;;;;;;;3.50;2.77;;;20.70;76.50;;;;;;6255154;22;20796;-86
2021/10/08 13:59:33;;;;;;;2.77;2.57;;;20.60;77.10;;;;;;6259459;22;20509;-84
2021/10/08 14:04:50;;;;;;;4.10;3.20;;;20.60;78.10;;;;;;6280746;22;20938;-85
2021/10/08 14:12:35;;;;;;;3.37;2.73;;;20.50;78.40;;;;;;6278460;22;20422;-84
2021/10/08 14:15:01;;;;;;;5.37;3.37;;;20.30;78.80;;;;;;6279083;22;20501;-83
2021/10/08 14:17:28;;;;;;;3.83;2.60;;;20.20;78.90;;;;;;6280109;22;20411;-81
2021/10/08 14:19:55;;;;;;;2.90;2.53;;;20.10;80.00;;;;;;6251865;22;20874;-83
2021/10/08 14:22:21;;;;;;;3.40;3.20;;;20.20;80.70;;;;;;6252896;22;20427;-85
2021/10/08 14:24:48;;;;;;;3.53;2.80;;;20.40;79.90;;;;;;6259768;22;20517;-84
2021/10/08 14:27:15;;;;;;;3.77;3.20;;;20.30;79.10;;;;;;6286098;22;20407;-84
2021/10/08 14:29:42;;;;;;;3.33;3.03;;;20.30;79.30;;;;;;6284120;22;20499;-86
2021/10/08 14:32:08;;;;;;;3.73;3.37;;;20.30;79.20;;;;;;6255810;22;20431;-87
2021/10/08 14:34:45;;;;;;;2.83;2.63;;;20.20;79.10;;;;;;6254915;22;20467;-86
2021/10/08 14:37:11;;;;;;;4.07;3.60;;;20.10;79.20;;;;;;6255800;22;20867;-87
2021/10/08 14:40:03;;;;;;;3.80;3.50;;;20.10;79.60;;;;;;6255165;22;20407;-86
2021/10/08 14:42:47;;;;;;;4.47;3.50;;;20.20;80.20;;;;;;6281520;22;20384;-86
2021/10/08 14:45:29;;;;;;;4.33;2.93;;;20.30;79.60;;;;;;6255583;22;20430;-86
2021/10/08 14:51:42;;;;;;;3.17;2.97;;;20.30;79.40;;;;;;6306317;22;20667;-86
2021/10/08 14:59:52;;;;;;;4.33;3.60;;;20.20;79.70;;;;;;6319269;22;20417;-86
2021/10/08 15:02:20;;;;;;;3.93;3.63;;;20.20;80.40;;;;;;6269187;22;20479;-85
2021/10/08 15:04:48;;;;;;;5.33;2.97;;;20.20;81.20;;;;;;6260554;22;20492;-85
2021/10/08 15:07:15;;;;;;;4.43;4.03;;;20.70;80.40;;;;;;6261379;22;20438;-86
2021/10/08 15:09:43;;;;;;;5.23;3.90;;;20.60;80.40;;;;;;6261073;22;20411;-86
2021/10/08 15:12:15;;;;;;;3.13;2.80;;;20.50;80.20;;;;;;6264008;22;20427;-86
2021/10/08 15:14:45;;;;;;;3.27;3.03;;;20.50;79.70;;;;;;6287273;22;20391;-86
2021/10/08 15:17:20;;;;;;;6.23;5.63;;;20.20;80.00;;;;;;6289795;22;21252;-85
2021/10/08 15:19:50;;;;;;;4.10;3.40;;;20.20;81.00;;;;;;6290117;22;20392;-87
2021/10/08 15:22:23;;;;;;;3.87;3.57;;;20.10;81.60;;;;;;6258450;22;20490;-86
2021/10/08 15:24:54;;;;;;;3.60;3.30;;;20.20;81.80;;;;;;6283525;22;20453;-88
2021/10/08 15:27:24;;;;;;;3.90;3.60;;;20.20;81.20;;;;;;6258393;22;20442;-86
2021/10/08 15:30:07;;;;;;;3.60;3.30;;;20.20;81.60;;;;;;6258668;22;20554;-86
2021/10/08 15:32:41;;;;;;;3.57;3.27;;;20.00;81.50;;;;;;6284597;22;20529;-88
2021/10/08 15:35:14;;;;;;;3.87;3.57;;;20.10;81.70;;;;;;6259355;22;20426;-87
2021/10/08 15:37:44;;;;;;;4.20;3.57;;;20.00;81.20;;;;;;6284001;22;20474;-86
2021/10/08 15:40:15;;;;;;;3.80;3.50;;;19.90;81.50;;;;;;6254777;22;20414;-85
2021/10/08 15:42:47;;;;;;;3.73;3.43;;;20.00;81.10;;;;;;6282735;22;20399;-85
2021/10/08 15:45:16;;;;;;;4.70;3.33;;;20.00;81.00;;;;;;6258618;22;20441;-85
2021/10/08 15:47:43;;;;;;;5.10;3.90;;;20.10;81.40;;;;;;6286174;22;20402;-86
2021/10/08 15:52:53;;;;;;;5.20;4.70;;;20.50;79.90;;;;;;6190829;23;20516;-87
2021/10/08 15:55:23;;;;;;;4.13;3.77;;;20.60;79.70;;;;;;6187704;23;21017;-87
2021/10/08 15:57:56;;;;;;;3.93;3.53;;;20.60;80.10;;;;;;6190134;23;20440;-87
2021/10/08 16:00:26;;;;;;;3.40;3.00;;;20.60;80.10;;;;;;6192198;23;20398;-87
2021/10/08 16:02:59;;;;;;;3.30;3.00;;;20.80;79.20;;;;;;6220521;23;20423;-86
2021/10/08 16:05:29;;;;;;;4.13;3.10;;;20.70;78.90;;;;;;6218794;23;20475;-85
2021/10/08 16:07:59;;;;;;;3.63;3.30;;;20.70;79.00;;;;;;6219396;23;20433;-85
2021/10/08 16:10:25;;;;;;;3.97;2.83;;;20.60;79.30;;;;;;6222132;22;20431;-86
2021/10/08 16:13:03;;;;;;;3.20;3.00;;;20.50;79.40;;;;;;6220647;23;20954;-85
2021/10/08 16:15:31;;;;;;;3.20;3.00;;;20.40;79.60;;;;;;6193346;23;20508;-86
2021/10/08 16:18:02;;;;;;;4.00;3.67;;;20.20;80.10;;;;;;6219672;23;20409;-86
2021/10/08 16:20:29;;;;;;;3.63;3.30;;;20.20;80.60;;;;;;6196394;22;20995;-86
2021/10/08 16:22:56;;;;;;;4.57;4.17;;;20.00;81.20;;;;;;6249928;23;20439;-85
2021/10/08 16:25:23;;;;;;;5.07;4.60;;;19.80;82.20;;;;;;6249725;23;20435;-88
2021/10/08 16:27:50;;;;;;;4.80;4.30;;;19.90;83.00;;;;;;6248600;23;20404;-85
2021/10/08 16:30:16;;;;;;;5.37;4.60;;;19.80;83.10;;;;;;6257842;22;20471;-85